LRI582 EDDH-LOWS
Flight info
| Callsign | LRI582 |
|---|---|
| Flight time | 0h 57m |
| Altitude | 37000 |
| Route | AMLUH2G AMLUH M852 DENIX DCT ZUCKA DCT SODRO T703 ARMUT/N0507F310 T703 ARBAX/N0500F300 T108 OSTES T700 BADIT BADIT2R |
| Aircraft | B772/H-SDE2E3FGHIJ5LORVWXY/LB1D1 |
Departure
| Time | 2026-04-20 12:28 |
|---|---|
| Airport | Hamburg Helmut Schmidt Airport (EDDH) |
Arrival
| Time | 2026-04-20 13:25 |
|---|---|
| Airport | Salzburg Airport (LOWS) |
| Time | Latitude | Longitude | Altitude | Speed | Heading |
|---|---|---|---|---|---|
| 2026-04-20 11:54 | 53.62890 | 10.00214 | 54 ft | 0 kts | 122° |
| 2026-04-20 12:21 | 53.62893 | 10.00205 | 54 ft | 2 kts | 119° |
| 2026-04-20 12:21 | 53.62899 | 10.00182 | 54 ft | 2 kts | 106° |
| 2026-04-20 12:21 | 53.62903 | 10.00158 | 54 ft | 2 kts | 96° |
| 2026-04-20 12:22 | 53.62903 | 10.00132 | 54 ft | 2 kts | 85° |
| 2026-04-20 12:22 | 53.62901 | 10.00107 | 54 ft | 2 kts | 75° |
| 2026-04-20 12:22 | 53.62896 | 10.00084 | 54 ft | 2 kts | 65° |
| 2026-04-20 12:22 | 53.62889 | 10.00062 | 54 ft | 2 kts | 54° |
| 2026-04-20 12:23 | 53.62879 | 10.00042 | 53 ft | 2 kts | 44° |
| 2026-04-20 12:23 | 53.62868 | 10.00026 | 53 ft | 2 kts | 33° |
| 2026-04-20 12:23 | 53.62862 | 10.00020 | 53 ft | 0 kts | 30° |
| 2026-04-20 12:25 | 53.62876 | 10.00028 | 53 ft | 6 kts | 8° |
| 2026-04-20 12:25 | 53.62903 | 9.99959 | 53 ft | 11 kts | 252° |
| 2026-04-20 12:26 | 53.62900 | 9.99943 | 53 ft | 0 kts | 251° |
| 2026-04-20 12:26 | 53.62890 | 9.99902 | 53 ft | 9 kts | 245° |
| 2026-04-20 12:26 | 53.62873 | 9.99769 | 53 ft | 13 kts | 302° |
| 2026-04-20 12:26 | 53.62930 | 9.99691 | 52 ft | 10 kts | 328° |
| 2026-04-20 12:27 | 53.63082 | 9.99559 | 52 ft | 51 kts | 334° |
| 2026-04-20 12:27 | 53.63628 | 9.99100 | 53 ft | 118 kts | 335° |
| 2026-04-20 12:27 | 53.64514 | 9.98324 | 64 ft | 168 kts | 336° |
| 2026-04-20 12:27 | 53.65582 | 9.97308 | 426 ft | 182 kts | 332° |
| 2026-04-20 12:28 | 53.66775 | 9.96322 | 937 ft | 198 kts | 342° |
| 2026-04-20 12:28 | 53.67895 | 9.95357 | 2204 ft | 173 kts | 343° |
| 2026-04-20 12:28 | 53.69013 | 9.94652 | 2545 ft | 178 kts | 1° |
| 2026-04-20 12:28 | 53.70245 | 9.94639 | 3035 ft | 177 kts | 11° |
| 2026-04-20 12:29 | 53.71478 | 9.94678 | 3489 ft | 186 kts | 8° |
| 2026-04-20 12:29 | 53.72775 | 9.95043 | 3845 ft | 190 kts | 29° |
| 2026-04-20 12:29 | 53.73868 | 9.96311 | 4167 ft | 199 kts | 50° |
| 2026-04-20 12:29 | 53.74615 | 9.98327 | 4636 ft | 205 kts | 70° |
| 2026-04-20 12:30 | 53.74799 | 10.00666 | 5242 ft | 209 kts | 93° |
| 2026-04-20 12:30 | 53.74383 | 10.03126 | 5550 ft | 229 kts | 111° |
| 2026-04-20 12:30 | 53.73578 | 10.05541 | 5944 ft | 242 kts | 115° |
| 2026-04-20 12:30 | 53.72718 | 10.08051 | 6478 ft | 248 kts | 115° |
| 2026-04-20 12:31 | 53.71859 | 10.10586 | 7047 ft | 252 kts | 115° |
| 2026-04-20 12:31 | 53.70979 | 10.13132 | 7635 ft | 255 kts | 116° |
| 2026-04-20 12:31 | 53.70129 | 10.15752 | 8172 ft | 259 kts | 114° |
| 2026-04-20 12:31 | 53.69271 | 10.18457 | 8664 ft | 265 kts | 115° |
| 2026-04-20 12:32 | 53.68213 | 10.21025 | 9184 ft | 274 kts | 131° |
| 2026-04-20 12:32 | 53.66618 | 10.22794 | 9819 ft | 282 kts | 154° |
| 2026-04-20 12:32 | 53.64669 | 10.23316 | 10482 ft | 289 kts | 179° |
| 2026-04-20 12:32 | 53.62692 | 10.23291 | 10987 ft | 289 kts | 167° |
| 2026-04-20 12:33 | 53.60671 | 10.24051 | 11142 ft | 304 kts | 160° |
| 2026-04-20 12:33 | 53.58585 | 10.25046 | 11325 ft | 321 kts | 160° |
| 2026-04-20 12:33 | 53.56401 | 10.26077 | 11564 ft | 337 kts | 160° |
| 2026-04-20 12:33 | 53.54081 | 10.27150 | 11787 ft | 353 kts | 161° |
| 2026-04-20 12:34 | 53.51667 | 10.28256 | 12021 ft | 367 kts | 161° |
| 2026-04-20 12:34 | 53.49161 | 10.29400 | 12389 ft | 377 kts | 161° |
| 2026-04-20 12:34 | 53.46648 | 10.30544 | 12940 ft | 382 kts | 161° |
| 2026-04-20 12:34 | 53.44078 | 10.31713 | 13578 ft | 386 kts | 161° |
| 2026-04-20 12:35 | 53.41463 | 10.32900 | 14239 ft | 390 kts | 161° |
| 2026-04-20 12:35 | 53.38856 | 10.34072 | 14962 ft | 393 kts | 162° |
| 2026-04-20 12:35 | 53.36224 | 10.35255 | 15766 ft | 395 kts | 162° |
| 2026-04-20 12:35 | 53.33553 | 10.36453 | 16527 ft | 398 kts | 162° |
| 2026-04-20 12:36 | 53.30893 | 10.37646 | 17167 ft | 403 kts | 162° |
| 2026-04-20 12:36 | 53.28170 | 10.38867 | 17823 ft | 408 kts | 162° |
| 2026-04-20 12:36 | 53.25446 | 10.40085 | 18489 ft | 412 kts | 162° |
| 2026-04-20 12:36 | 53.22639 | 10.41339 | 19193 ft | 415 kts | 162° |
| 2026-04-20 12:37 | 53.19852 | 10.42583 | 19842 ft | 419 kts | 162° |
| 2026-04-20 12:37 | 53.17032 | 10.43840 | 20469 ft | 423 kts | 162° |
| 2026-04-20 12:37 | 53.14216 | 10.45093 | 21093 ft | 427 kts | 162° |
| 2026-04-20 12:37 | 53.11321 | 10.46333 | 21731 ft | 431 kts | 165° |
| 2026-04-20 12:38 | 53.08359 | 10.47261 | 22344 ft | 436 kts | 167° |
| 2026-04-20 12:38 | 53.05360 | 10.48151 | 22915 ft | 440 kts | 166° |
| 2026-04-20 12:38 | 53.02357 | 10.49052 | 23509 ft | 443 kts | 166° |
| 2026-04-20 12:38 | 52.99320 | 10.49971 | 24092 ft | 447 kts | 166° |
| 2026-04-20 12:39 | 52.93187 | 10.51844 | 25181 ft | 454 kts | 166° |
| 2026-04-20 12:39 | 52.90051 | 10.52805 | 25767 ft | 457 kts | 166° |
| 2026-04-20 12:39 | 52.86930 | 10.53763 | 26344 ft | 459 kts | 166° |
| 2026-04-20 12:40 | 52.83796 | 10.54725 | 26869 ft | 462 kts | 166° |
| 2026-04-20 12:40 | 52.80616 | 10.55702 | 27336 ft | 466 kts | 166° |
| 2026-04-20 12:40 | 52.77418 | 10.56683 | 27786 ft | 470 kts | 166° |
| 2026-04-20 12:40 | 52.74177 | 10.57676 | 28363 ft | 471 kts | 166° |
| 2026-04-20 12:41 | 52.70990 | 10.58652 | 28866 ft | 474 kts | 166° |
| 2026-04-20 12:41 | 52.67711 | 10.59656 | 29306 ft | 478 kts | 166° |
| 2026-04-20 12:41 | 52.64450 | 10.60652 | 29671 ft | 482 kts | 166° |
| 2026-04-20 12:41 | 52.61111 | 10.61671 | 30128 ft | 485 kts | 166° |
| 2026-04-20 12:42 | 52.57775 | 10.62687 | 30684 ft | 485 kts | 166° |
| 2026-04-20 12:42 | 52.54460 | 10.63695 | 31317 ft | 484 kts | 166° |
| 2026-04-20 12:42 | 52.51182 | 10.64690 | 31789 ft | 481 kts | 166° |
| 2026-04-20 12:42 | 52.47853 | 10.65700 | 32128 ft | 482 kts | 168° |
| 2026-04-20 12:43 | 52.44562 | 10.66697 | 32361 ft | 486 kts | 168° |
| 2026-04-20 12:43 | 52.41195 | 10.67716 | 32604 ft | 489 kts | 168° |
| 2026-04-20 12:43 | 52.37854 | 10.68725 | 32870 ft | 491 kts | 168° |
| 2026-04-20 12:43 | 52.34504 | 10.69735 | 33175 ft | 492 kts | 168° |
| 2026-04-20 12:44 | 52.31131 | 10.70751 | 33465 ft | 493 kts | 169° |
| 2026-04-20 12:44 | 52.27770 | 10.71761 | 33718 ft | 494 kts | 169° |
| 2026-04-20 12:44 | 52.24360 | 10.72784 | 33959 ft | 497 kts | 169° |
| 2026-04-20 12:44 | 52.20977 | 10.73798 | 34246 ft | 498 kts | 169° |
| 2026-04-20 12:45 | 52.17576 | 10.74816 | 34623 ft | 498 kts | 170° |
| 2026-04-20 12:45 | 52.14155 | 10.75837 | 35060 ft | 497 kts | 170° |
| 2026-04-20 12:45 | 52.10789 | 10.76841 | 35469 ft | 496 kts | 170° |
| 2026-04-20 12:45 | 52.07401 | 10.77850 | 35835 ft | 495 kts | 170° |
| 2026-04-20 12:46 | 52.03988 | 10.78866 | 36155 ft | 496 kts | 170° |
| 2026-04-20 12:46 | 52.00591 | 10.79874 | 36425 ft | 497 kts | 170° |
| 2026-04-20 12:46 | 51.97197 | 10.80880 | 36692 ft | 498 kts | 170° |
| 2026-04-20 12:46 | 51.93792 | 10.81888 | 36969 ft | 498 kts | 171° |
| 2026-04-20 12:47 | 51.90387 | 10.82894 | 37077 ft | 502 kts | 171° |
| 2026-04-20 12:47 | 51.83506 | 10.84922 | 37085 ft | 511 kts | 171° |
| 2026-04-20 12:48 | 51.76456 | 10.86994 | 37071 ft | 512 kts | 171° |
| 2026-04-20 12:48 | 51.69470 | 10.89093 | 37059 ft | 513 kts | 167° |
| 2026-04-20 12:49 | 51.62847 | 10.93177 | 37079 ft | 514 kts | 154° |
| 2026-04-20 12:49 | 51.56397 | 10.98284 | 37074 ft | 515 kts | 154° |
| 2026-04-20 12:50 | 51.49956 | 11.03372 | 37074 ft | 515 kts | 154° |
| 2026-04-20 12:50 | 51.43551 | 11.08407 | 37076 ft | 516 kts | 154° |
| 2026-04-20 12:51 | 51.37060 | 11.13490 | 37075 ft | 516 kts | 154° |
| 2026-04-20 12:51 | 51.30632 | 11.18505 | 37076 ft | 517 kts | 154° |
| 2026-04-20 12:52 | 51.24145 | 11.23548 | 37070 ft | 517 kts | 154° |
| 2026-04-20 12:52 | 51.17672 | 11.28564 | 37073 ft | 517 kts | 154° |
| 2026-04-20 12:53 | 51.11238 | 11.33534 | 37074 ft | 517 kts | 154° |
| 2026-04-20 12:53 | 51.04763 | 11.38520 | 37076 ft | 518 kts | 154° |
| 2026-04-20 12:54 | 50.98248 | 11.43520 | 37073 ft | 518 kts | 154° |
| 2026-04-20 12:54 | 50.91782 | 11.48468 | 37073 ft | 517 kts | 155° |
| 2026-04-20 12:55 | 50.85288 | 11.53421 | 37070 ft | 519 kts | 154° |
| 2026-04-20 12:55 | 50.78736 | 11.58404 | 37073 ft | 520 kts | 155° |
| 2026-04-20 12:56 | 50.72247 | 11.63323 | 37071 ft | 519 kts | 155° |
| 2026-04-20 12:56 | 50.65721 | 11.68254 | 37063 ft | 520 kts | 155° |
| 2026-04-20 12:57 | 50.59202 | 11.73166 | 37055 ft | 520 kts | 155° |
| 2026-04-20 12:57 | 50.52655 | 11.78083 | 37053 ft | 520 kts | 155° |
| 2026-04-20 12:58 | 50.46132 | 11.82967 | 37053 ft | 521 kts | 156° |
| 2026-04-20 12:58 | 50.39487 | 11.87534 | 37056 ft | 521 kts | 158° |
| 2026-04-20 12:59 | 50.32810 | 11.92012 | 37057 ft | 522 kts | 158° |
| 2026-04-20 12:59 | 50.26117 | 11.96503 | 37059 ft | 522 kts | 158° |
| 2026-04-20 13:00 | 50.19453 | 12.00975 | 37053 ft | 522 kts | 158° |
| 2026-04-20 13:00 | 50.12806 | 12.05430 | 37045 ft | 522 kts | 158° |
| 2026-04-20 13:01 | 50.06078 | 12.09928 | 37039 ft | 524 kts | 158° |
| 2026-04-20 13:01 | 49.99405 | 12.14372 | 37033 ft | 523 kts | 158° |
| 2026-04-20 13:02 | 49.92711 | 12.18817 | 36873 ft | 516 kts | 158° |
| 2026-04-20 13:02 | 49.89457 | 12.20974 | 36152 ft | 517 kts | 159° |
| 2026-04-20 13:02 | 49.86149 | 12.23161 | 35063 ft | 526 kts | 159° |
| 2026-04-20 13:02 | 49.82758 | 12.25400 | 34067 ft | 530 kts | 159° |
| 2026-04-20 13:03 | 49.79350 | 12.27649 | 33187 ft | 533 kts | 159° |
| 2026-04-20 13:03 | 49.75976 | 12.29871 | 32325 ft | 537 kts | 159° |
| 2026-04-20 13:03 | 49.72600 | 12.32390 | 31566 ft | 538 kts | 152° |
| 2026-04-20 13:03 | 49.69505 | 12.35573 | 31167 ft | 531 kts | 144° |
| 2026-04-20 13:04 | 49.66609 | 12.38925 | 31051 ft | 522 kts | 144° |
| 2026-04-20 13:04 | 49.60753 | 12.45751 | 31025 ft | 532 kts | 144° |
| 2026-04-20 13:05 | 49.54844 | 12.52623 | 31023 ft | 532 kts | 144° |
| 2026-04-20 13:05 | 49.48922 | 12.59488 | 31028 ft | 534 kts | 144° |
| 2026-04-20 13:06 | 49.43030 | 12.66500 | 31032 ft | 535 kts | 140° |
| 2026-04-20 13:06 | 49.37614 | 12.74330 | 31029 ft | 537 kts | 137° |
| 2026-04-20 13:07 | 49.32517 | 12.82836 | 31036 ft | 539 kts | 139° |
| 2026-04-20 13:07 | 49.26460 | 12.89427 | 31038 ft | 532 kts | 156° |
| 2026-04-20 13:08 | 49.19580 | 12.93070 | 31029 ft | 520 kts | 174° |
| 2026-04-20 13:08 | 49.12429 | 12.93531 | 31034 ft | 510 kts | 192° |
| 2026-04-20 13:09 | 49.05713 | 12.91046 | 31034 ft | 496 kts | 206° |
| 2026-04-20 13:09 | 48.99287 | 12.87318 | 31031 ft | 488 kts | 209° |
| 2026-04-20 13:10 | 48.93012 | 12.83349 | 31034 ft | 487 kts | 210° |
| 2026-04-20 13:10 | 48.86779 | 12.79429 | 31054 ft | 487 kts | 210° |
| 2026-04-20 13:10 | 48.83655 | 12.77493 | 30834 ft | 478 kts | 210° |
| 2026-04-20 13:11 | 48.80592 | 12.75628 | 30011 ft | 470 kts | 210° |
| 2026-04-20 13:11 | 48.77588 | 12.73823 | 28802 ft | 469 kts | 209° |
| 2026-04-20 13:11 | 48.74590 | 12.72038 | 27588 ft | 466 kts | 209° |
| 2026-04-20 13:11 | 48.71601 | 12.70280 | 26632 ft | 456 kts | 208° |
| 2026-04-20 13:12 | 48.68700 | 12.68604 | 25778 ft | 445 kts | 208° |
| 2026-04-20 13:12 | 48.65824 | 12.66972 | 24811 ft | 436 kts | 207° |
| 2026-04-20 13:12 | 48.62968 | 12.65505 | 23661 ft | 435 kts | 201° |
| 2026-04-20 13:12 | 48.60018 | 12.64698 | 22573 ft | 436 kts | 191° |
| 2026-04-20 13:13 | 48.57002 | 12.64694 | 21556 ft | 435 kts | 180° |
| 2026-04-20 13:13 | 48.54033 | 12.65485 | 20485 ft | 434 kts | 169° |
| 2026-04-20 13:13 | 48.51206 | 12.67046 | 19407 ft | 433 kts | 158° |
| 2026-04-20 13:13 | 48.48559 | 12.69039 | 18415 ft | 425 kts | 159° |
| 2026-04-20 13:14 | 48.45873 | 12.70771 | 17444 ft | 415 kts | 163° |
| 2026-04-20 13:14 | 48.43202 | 12.72187 | 16443 ft | 407 kts | 167° |
| 2026-04-20 13:14 | 48.40499 | 12.73386 | 15403 ft | 401 kts | 168° |
| 2026-04-20 13:14 | 48.37894 | 12.74653 | 14402 ft | 396 kts | 166° |
| 2026-04-20 13:15 | 48.35304 | 12.75897 | 13450 ft | 388 kts | 167° |
| 2026-04-20 13:15 | 48.32738 | 12.77046 | 12519 ft | 380 kts | 168° |
| 2026-04-20 13:15 | 48.30252 | 12.78102 | 11621 ft | 372 kts | 168° |
| 2026-04-20 13:15 | 48.27775 | 12.79119 | 10686 ft | 366 kts | 169° |
| 2026-04-20 13:16 | 48.25341 | 12.80083 | 9755 ft | 360 kts | 169° |
| 2026-04-20 13:16 | 48.22963 | 12.81000 | 9144 ft | 345 kts | 169° |
| 2026-04-20 13:16 | 48.20685 | 12.81862 | 8675 ft | 330 kts | 170° |
| 2026-04-20 13:16 | 48.18519 | 12.82668 | 8317 ft | 313 kts | 170° |
| 2026-04-20 13:17 | 48.16463 | 12.83422 | 8024 ft | 298 kts | 170° |
| 2026-04-20 13:17 | 48.14487 | 12.84141 | 7808 ft | 282 kts | 170° |
| 2026-04-20 13:17 | 48.12634 | 12.84812 | 7511 ft | 272 kts | 170° |
| 2026-04-20 13:17 | 48.10786 | 12.85477 | 7006 ft | 271 kts | 170° |
| 2026-04-20 13:18 | 48.08959 | 12.86136 | 6507 ft | 270 kts | 169° |
| 2026-04-20 13:18 | 48.07151 | 12.86788 | 6022 ft | 269 kts | 169° |
| 2026-04-20 13:18 | 48.05320 | 12.87450 | 5555 ft | 267 kts | 169° |
| 2026-04-20 13:18 | 48.03541 | 12.88091 | 5097 ft | 265 kts | 169° |
| 2026-04-20 13:19 | 48.01749 | 12.88737 | 4620 ft | 264 kts | 169° |
| 2026-04-20 13:19 | 47.99939 | 12.89109 | 4143 ft | 259 kts | 186° |
| 2026-04-20 13:19 | 47.98163 | 12.89221 | 3965 ft | 261 kts | 167° |
| 2026-04-20 13:19 | 47.96571 | 12.90496 | 3906 ft | 266 kts | 137° |
| 2026-04-20 13:20 | 47.95590 | 12.92781 | 3869 ft | 266 kts | 106° |
| 2026-04-20 13:20 | 47.95290 | 12.95525 | 3858 ft | 265 kts | 99° |
| 2026-04-20 13:20 | 47.94617 | 12.97978 | 3848 ft | 254 kts | 121° |
| 2026-04-20 13:20 | 47.93674 | 13.00154 | 3863 ft | 239 kts | 123° |
| 2026-04-20 13:21 | 47.92678 | 13.02002 | 3873 ft | 222 kts | 141° |
| 2026-04-20 13:21 | 47.91394 | 13.03088 | 3852 ft | 205 kts | 161° |
| 2026-04-20 13:21 | 47.90067 | 13.03684 | 3847 ft | 195 kts | 169° |
| 2026-04-20 13:21 | 47.88732 | 13.04122 | 3846 ft | 194 kts | 171° |
| 2026-04-20 13:22 | 47.87427 | 13.04523 | 3845 ft | 189 kts | 171° |
| 2026-04-20 13:22 | 47.86172 | 13.04909 | 3827 ft | 176 kts | 172° |
| 2026-04-20 13:22 | 47.85019 | 13.05261 | 3821 ft | 163 kts | 172° |
| 2026-04-20 13:22 | 47.83918 | 13.05595 | 3812 ft | 159 kts | 172° |
| 2026-04-20 13:23 | 47.82838 | 13.05925 | 3812 ft | 158 kts | 172° |
| 2026-04-20 13:23 | 47.81747 | 13.06121 | 3779 ft | 156 kts | 193° |
| 2026-04-20 13:23 | 47.80749 | 13.05542 | 3655 ft | 159 kts | 206° |
| 2026-04-20 13:23 | 47.79670 | 13.04911 | 3101 ft | 163 kts | 207° |
| 2026-04-20 13:24 | 47.78822 | 13.03952 | 2879 ft | 158 kts | 229° |
| 2026-04-20 13:24 | 47.78179 | 13.02632 | 2301 ft | 156 kts | 251° |
| 2026-04-20 13:24 | 47.78205 | 13.01138 | 1799 ft | 145 kts | 315° |
| 2026-04-20 13:24 | 47.79121 | 13.00574 | 1442 ft | 135 kts | 332° |
| 2026-04-20 13:25 | 47.79745 | 13.00142 | 1427 ft | 40 kts | 335° |
| 2026-04-20 13:25 | 47.79969 | 12.99991 | 1427 ft | 28 kts | 336° |
| 2026-04-20 13:25 | 47.80085 | 12.99919 | 1426 ft | 5 kts | 338° |
| 2026-04-20 13:25 | 47.80144 | 12.99882 | 1426 ft | 14 kts | 336° |
| 2026-04-20 13:26 | 47.80244 | 12.99809 | 1426 ft | 14 kts | 322° |
| 2026-04-20 13:26 | 47.80262 | 12.99666 | 1426 ft | 16 kts | 248° |
| 2026-04-20 13:26 | 47.80166 | 12.99608 | 1426 ft | 17 kts | 166° |
| 2026-04-20 13:26 | 47.80048 | 12.99674 | 1426 ft | 18 kts | 157° |
| 2026-04-20 13:27 | 47.79924 | 12.99753 | 1427 ft | 19 kts | 156° |
| 2026-04-20 13:27 | 47.79792 | 12.99836 | 1427 ft | 20 kts | 156° |
| 2026-04-20 13:27 | 47.79655 | 12.99924 | 1428 ft | 21 kts | 158° |
| 2026-04-20 13:27 | 47.79523 | 13.00006 | 1428 ft | 18 kts | 157° |
| 2026-04-20 13:28 | 47.79399 | 13.00085 | 1428 ft | 20 kts | 157° |
| 2026-04-20 13:28 | 47.79265 | 13.00169 | 1428 ft | 21 kts | 157° |
| 2026-04-20 13:28 | 47.79124 | 13.00259 | 1428 ft | 21 kts | 157° |
| 2026-04-20 13:28 | 47.79013 | 13.00326 | 1428 ft | 9 kts | 166° |
| 2026-04-20 13:29 | 47.78963 | 13.00272 | 1428 ft | 9 kts | 253° |
| 2026-04-20 13:29 | 47.78974 | 13.00168 | 1429 ft | 11 kts | 310° |
| 2026-04-20 13:29 | 47.79044 | 13.00097 | 1429 ft | 12 kts | 330° |
| 2026-04-20 13:29 | 47.79082 | 13.00003 | 1429 ft | 1 kts | 283° |
| 2026-04-20 13:30 | 47.79086 | 12.99980 | 1430 ft | 3 kts | 284° |
| 2026-04-20 13:30 | 47.79091 | 12.99950 | 1430 ft | 0 kts | 282° |